createdAt,value
2022-11-01T00:26:51.745Z,100.00
2022-11-01T00:29:18.766Z,100.00
2022-11-01T00:31:45.638Z,100.00
2022-11-01T00:34:12.402Z,100.00
2022-11-01T00:36:39.393Z,100.00
2022-11-01T00:39:07.490Z,100.00
2022-11-01T00:41:35.220Z,100.00
2022-11-01T00:44:02.046Z,100.00
2022-11-01T00:46:31.482Z,100.00
2022-11-01T00:48:58.276Z,100.00
2022-11-01T00:51:26.281Z,99.72
2022-11-01T00:53:53.094Z,99.44
2022-11-01T00:56:19.862Z,99.07
2022-11-01T00:58:46.646Z,98.90
2022-11-01T01:01:13.696Z,98.70
2022-11-01T01:03:40.700Z,98.68
2022-11-01T01:06:07.682Z,98.53
2022-11-01T01:08:34.551Z,98.48
2022-11-01T01:11:01.272Z,99.02
2022-11-01T01:13:28.091Z,98.82
2022-11-01T01:15:54.822Z,98.84
2022-11-01T01:18:21.958Z,99.16
2022-11-01T01:20:48.911Z,99.04
2022-11-01T01:23:15.670Z,98.92
2022-11-01T01:25:43.166Z,99.45
2022-11-01T01:28:10.117Z,99.42
2022-11-01T01:30:41.429Z,99.33
2022-11-01T01:33:09.607Z,100.00
2022-11-01T01:35:39.134Z,100.00
2022-11-01T01:38:07.314Z,100.00
2022-11-01T01:40:35.205Z,100.00
2022-11-01T01:43:02.362Z,100.00
2022-11-01T01:45:39.636Z,100.00
2022-11-01T01:48:27.501Z,100.00
2022-11-01T01:51:00.098Z,100.00
2022-11-01T01:53:42.211Z,100.00
2022-11-01T01:56:21.527Z,100.00
2022-11-01T01:59:02.965Z,100.00
2022-11-01T02:01:30.305Z,100.00
2022-11-01T02:03:57.692Z,100.00
2022-11-01T02:06:26.114Z,100.00
2022-11-01T02:08:56.881Z,100.00
2022-11-01T02:11:24.063Z,100.00
2022-11-01T02:13:51.845Z,100.00
2022-11-01T02:16:54.690Z,100.00
2022-11-01T02:20:07.709Z,100.00
2022-11-01T02:23:18.702Z,100.00
2022-11-01T02:26:02.133Z,100.00
2022-11-01T02:28:44.367Z,100.00
2022-11-01T02:31:47.771Z,100.00
2022-11-01T02:34:24.165Z,100.00
2022-11-01T02:37:12.796Z,100.00
2022-11-01T02:39:47.553Z,100.00
2022-11-01T02:42:37.096Z,100.00
2022-11-01T02:45:43.013Z,100.00
2022-11-01T02:48:09.975Z,100.00
2022-11-01T02:50:42.762Z,100.00
2022-11-01T02:53:10.441Z,100.00
2022-11-01T02:55:37.270Z,100.00
2022-11-01T02:58:25.860Z,100.00
2022-11-01T03:00:52.798Z,100.00
2022-11-01T03:03:34.428Z,100.00
2022-11-01T03:06:01.234Z,100.00
2022-11-01T03:08:35.788Z,100.00
2022-11-01T03:11:21.787Z,100.00
2022-11-01T03:14:17.910Z,100.00
2022-11-01T03:17:28.222Z,100.00
2022-11-01T03:20:07.530Z,100.00
2022-11-01T03:22:53.875Z,100.00
2022-11-01T03:25:40.773Z,100.00
2022-11-01T03:28:09.320Z,100.00
2022-11-01T03:30:37.790Z,100.00
2022-11-01T03:33:05.592Z,100.00
2022-11-01T03:35:37.192Z,100.00
2022-11-01T03:38:21.336Z,100.00
2022-11-01T03:40:55.482Z,100.00
2022-11-01T03:43:24.522Z,100.00
2022-11-01T03:45:51.615Z,100.00
2022-11-01T03:48:18.437Z,100.00
2022-11-01T03:50:56.481Z,100.00
2022-11-01T03:53:24.638Z,100.00
2022-11-01T03:55:51.510Z,100.00
2022-11-01T03:58:18.577Z,100.00
2022-11-01T04:00:47.254Z,100.00
2022-11-01T04:03:14.375Z,100.00
2022-11-01T04:05:42.797Z,99.80
2022-11-01T04:08:11.650Z,99.53
2022-11-01T04:10:38.782Z,98.62
2022-11-01T04:13:06.027Z,98.01
2022-11-01T04:15:51.651Z,97.72
2022-11-01T04:18:41.863Z,97.06
2022-11-01T04:21:13.654Z,95.45
2022-11-01T04:23:40.629Z,95.07
2022-11-01T04:26:11.735Z,94.23
2022-11-01T04:28:38.627Z,94.10
2022-11-01T04:31:06.444Z,93.23
2022-11-01T04:33:33.286Z,93.57
2022-11-01T04:36:06.552Z,92.48
2022-11-01T04:38:33.324Z,91.74
2022-11-01T04:41:00.159Z,90.93
2022-11-01T04:43:27.137Z,91.02
2022-11-01T04:45:56.212Z,90.35
2022-11-01T04:48:23.851Z,89.14
2022-11-01T04:50:50.892Z,88.40
2022-11-01T04:53:17.821Z,87.83
2022-11-01T04:55:44.964Z,88.56
2022-11-01T04:58:12.098Z,87.20
2022-11-01T05:00:39.524Z,87.72
2022-11-01T05:03:08.399Z,87.45
2022-11-01T05:05:35.943Z,87.23
2022-11-01T05:08:09.972Z,87.15
2022-11-01T05:10:40.841Z,87.44
2022-11-01T05:13:08.914Z,87.37
2022-11-01T05:15:40.068Z,87.62
2022-11-01T05:18:14.814Z,87.72
2022-11-01T05:20:41.566Z,88.22
2022-11-01T05:23:09.912Z,88.68
2022-11-01T05:25:38.271Z,89.24
2022-11-01T05:28:13.075Z,89.51
2022-11-01T05:30:40.823Z,89.14
2022-11-01T05:33:08.670Z,89.37
2022-11-01T05:35:36.482Z,89.45
2022-11-01T05:38:05.378Z,89.75
2022-11-01T05:40:33.290Z,89.50
2022-11-01T05:43:00.481Z,89.80
2022-11-01T05:45:27.829Z,89.61
2022-11-01T05:47:54.625Z,89.98
2022-11-01T05:50:21.429Z,90.14
2022-11-01T05:52:50.095Z,90.05
2022-11-01T05:55:17.241Z,90.33
2022-11-01T05:57:44.113Z,90.14
2022-11-01T06:00:12.169Z,90.53
2022-11-01T06:02:39.118Z,90.48
2022-11-01T06:05:06.330Z,91.08
2022-11-01T06:07:37.622Z,90.82
2022-11-01T06:10:05.881Z,90.77
2022-11-01T06:12:33.035Z,90.94
2022-11-01T06:14:59.840Z,90.60
2022-11-01T06:17:26.671Z,90.94
2022-11-01T06:19:53.513Z,90.67
2022-11-01T06:22:20.349Z,91.20
2022-11-01T06:24:47.115Z,91.25
2022-11-01T06:27:13.881Z,91.86
2022-11-01T06:29:40.695Z,91.91
2022-11-01T06:32:07.610Z,91.99
2022-11-01T06:34:34.527Z,92.42
2022-11-01T06:37:01.514Z,92.56
2022-11-01T06:39:29.046Z,92.63
2022-11-01T06:41:55.822Z,92.68
2022-11-01T06:44:23.018Z,92.70
2022-11-01T06:46:50.218Z,92.75
2022-11-01T06:49:19.093Z,93.10
2022-11-01T06:51:47.335Z,93.35
2022-11-01T06:54:14.578Z,93.14
2022-11-01T06:56:41.339Z,93.36
2022-11-01T06:59:08.809Z,93.38
2022-11-01T07:01:36.027Z,93.59
2022-11-01T07:04:02.959Z,93.50
2022-11-01T07:06:31.164Z,93.31
2022-11-01T07:09:01.641Z,93.44
2022-11-01T07:11:31.495Z,93.40
2022-11-01T07:13:59.607Z,93.47
2022-11-01T07:16:27.204Z,93.81
2022-11-01T07:18:54.034Z,93.98
2022-11-01T07:21:21.708Z,93.98
2022-11-01T07:23:48.940Z,93.89
2022-11-01T07:26:15.829Z,94.05
2022-11-01T07:28:42.593Z,93.65
2022-11-01T07:31:09.458Z,93.88
2022-11-01T07:33:36.584Z,93.76
2022-11-01T07:36:04.736Z,94.02
2022-11-01T07:38:31.884Z,94.07
2022-11-01T07:40:58.906Z,94.46
2022-11-01T07:43:25.705Z,94.94
2022-11-01T07:45:52.597Z,95.09
2022-11-01T07:48:19.946Z,95.17
2022-11-01T07:50:47.044Z,95.13
2022-11-01T07:53:19.371Z,95.35
2022-11-01T07:55:47.095Z,95.79
2022-11-01T07:58:15.777Z,96.37
2022-11-01T08:00:44.228Z,97.21
2022-11-01T08:03:17.252Z,97.22
2022-11-01T08:05:45.784Z,97.38
2022-11-01T08:08:14.690Z,98.09
2022-11-01T08:10:45.393Z,98.01
2022-11-01T08:13:18.413Z,98.36
2022-11-01T08:15:46.220Z,98.33
2022-11-01T08:18:13.487Z,99.33
2022-11-01T08:20:41.290Z,98.73
2022-11-01T08:23:09.313Z,99.01
2022-11-01T08:25:37.001Z,98.76
2022-11-01T08:28:17.106Z,98.48
2022-11-01T08:30:46.010Z,98.10
2022-11-01T08:33:12.921Z,97.81
2022-11-01T08:35:40.345Z,97.98
2022-11-01T08:38:09.705Z,98.28
2022-11-01T08:40:36.515Z,97.83
2022-11-01T08:43:03.602Z,97.48
2022-11-01T08:45:30.707Z,97.16
2022-11-01T08:48:03.809Z,96.91
2022-11-01T08:50:34.023Z,96.51
2022-11-01T08:53:09.461Z,95.87
2022-11-01T08:55:38.195Z,95.11
2022-11-01T08:58:06.910Z,94.73
2022-11-01T09:00:35.300Z,94.58
2022-11-01T09:03:02.183Z,94.57
2022-11-01T09:05:31.578Z,94.87
2022-11-01T09:08:02.067Z,94.52
2022-11-01T09:10:31.165Z,93.93
2022-11-01T09:13:02.268Z,94.04
2022-11-01T09:15:29.770Z,93.42
2022-11-01T09:17:56.694Z,93.65
2022-11-01T09:20:24.275Z,93.15
2022-11-01T09:22:52.660Z,93.02
2022-11-01T09:25:19.695Z,92.28
2022-11-01T09:27:46.482Z,92.32
2022-11-01T09:30:13.965Z,90.98
2022-11-01T09:32:40.740Z,89.83
2022-11-01T09:35:09.323Z,87.96
2022-11-01T09:37:36.197Z,87.61
2022-11-01T09:40:03.793Z,87.84
2022-11-01T09:42:36.104Z,87.52
2022-11-01T09:45:13.157Z,88.14
2022-11-01T09:47:41.700Z,87.67
2022-11-01T09:50:24.320Z,87.77
2022-11-01T09:52:53.514Z,86.72
2022-11-01T09:55:37.423Z,86.88
2022-11-01T09:58:34.510Z,86.63
2022-11-01T10:01:27.454Z,86.04
2022-11-01T10:04:20.208Z,86.01
2022-11-01T10:07:09.983Z,84.12
2022-11-01T10:10:18.653Z,83.51
2022-11-01T10:13:00.364Z,81.87
2022-11-01T10:15:52.722Z,80.59
2022-11-01T10:18:31.086Z,81.55
2022-11-01T10:21:21.621Z,81.74
2022-11-01T10:23:53.177Z,81.66
2022-11-01T10:26:30.264Z,81.67
2022-11-01T10:29:07.399Z,82.23
2022-11-01T10:31:43.130Z,82.78
2022-11-01T10:34:31.979Z,81.92
2022-11-01T10:37:39.009Z,82.26
2022-11-01T10:40:28.341Z,81.30
2022-11-01T10:42:55.462Z,81.37
2022-11-01T10:45:23.362Z,81.19
2022-11-01T10:47:57.083Z,80.94
2022-11-01T10:50:30.565Z,81.33
2022-11-01T10:53:03.465Z,81.77
2022-11-01T10:55:45.661Z,82.55
2022-11-01T10:58:41.960Z,82.46
2022-11-01T11:01:16.049Z,82.93
2022-11-01T11:03:46.210Z,83.15
2022-11-01T11:06:17.579Z,83.29
2022-11-01T11:08:51.754Z,83.54
2022-11-01T11:11:31.559Z,83.79
2022-11-01T11:14:00.491Z,84.22
2022-11-01T11:16:33.773Z,84.40
2022-11-01T11:19:26.992Z,84.72
2022-11-01T11:21:54.458Z,84.83
2022-11-01T11:24:34.899Z,84.85
2022-11-01T11:27:04.114Z,84.69
2022-11-01T11:29:49.461Z,84.24
2022-11-01T11:32:24.994Z,83.88
2022-11-01T11:35:18.386Z,83.81
2022-11-01T11:38:07.293Z,83.84
2022-11-01T11:40:43.047Z,83.44
2022-11-01T11:43:30.438Z,83.19
2022-11-01T11:46:21.750Z,82.84
2022-11-01T11:49:07.432Z,82.63
2022-11-01T11:51:38.471Z,82.71
2022-11-01T11:54:25.487Z,82.24
2022-11-01T11:57:11.757Z,82.56
2022-11-01T11:59:40.632Z,82.03
2022-11-01T12:02:27.683Z,82.02
2022-11-01T12:05:02.113Z,81.42
2022-11-01T12:07:44.847Z,81.82
2022-11-01T12:10:34.211Z,81.74
2022-11-01T12:13:03.453Z,81.92
2022-11-01T12:15:41.265Z,81.06
2022-11-01T12:18:19.370Z,80.88
2022-11-01T12:20:52.013Z,80.38
2022-11-01T12:23:40.682Z,80.34
2022-11-01T12:26:14.057Z,79.63
2022-11-01T12:28:51.313Z,78.57
2022-11-01T12:31:20.800Z,78.60
2022-11-01T12:34:03.526Z,77.95
2022-11-01T12:36:46.529Z,78.33
2022-11-01T12:39:37.983Z,77.56
2022-11-01T12:42:05.362Z,78.20
2022-11-01T12:44:40.560Z,77.72
2022-11-01T12:47:45.814Z,78.58
2022-11-01T12:50:29.085Z,78.89
2022-11-01T12:53:16.080Z,79.19
2022-11-01T12:55:43.739Z,78.97
2022-11-01T12:58:16.364Z,78.83
2022-11-01T13:01:23.146Z,79.15
2022-11-01T13:04:30.356Z,79.09
2022-11-01T13:07:06.729Z,78.29
2022-11-01T13:09:57.809Z,78.25
2022-11-01T13:13:08.103Z,77.65
2022-11-01T13:15:54.867Z,78.50
2022-11-01T13:18:42.070Z,78.63
2022-11-01T13:21:37.182Z,78.13
2022-11-01T13:24:50.519Z,77.81
2022-11-01T13:27:33.029Z,78.68
2022-11-01T13:30:13.601Z,78.63
2022-11-01T13:32:51.500Z,79.39
2022-11-01T13:35:48.606Z,79.80
2022-11-01T13:38:42.290Z,79.54
2022-11-01T13:41:37.496Z,80.18
2022-11-01T13:44:18.355Z,78.99
2022-11-01T13:46:57.495Z,80.14
2022-11-01T13:50:01.871Z,79.37
2022-11-01T13:52:33.995Z,79.48
2022-11-01T13:55:14.210Z,79.98
2022-11-01T13:57:45.003Z,80.04
2022-11-01T14:00:41.108Z,80.67
2022-11-01T14:03:30.960Z,81.03
2022-11-01T14:09:27.955Z,81.90
2022-11-01T14:11:58.786Z,82.00
2022-11-01T14:14:31.597Z,82.34
2022-11-01T14:17:19.620Z,82.75
2022-11-01T14:20:15.369Z,83.10
2022-11-01T14:22:45.021Z,84.94
2022-11-01T14:25:14.127Z,85.04
2022-11-01T14:27:50.344Z,87.18
2022-11-01T14:30:25.158Z,85.36
2022-11-01T14:33:01.153Z,86.06
2022-11-01T14:35:38.013Z,86.44
2022-11-01T14:38:15.716Z,86.86
2022-11-01T14:40:51.565Z,87.00
2022-11-01T14:43:25.904Z,87.68
2022-11-01T14:46:04.275Z,87.53
2022-11-01T14:48:46.535Z,87.97
2022-11-01T14:51:37.404Z,88.69
2022-11-01T14:54:23.663Z,88.59
2022-11-01T14:56:54.279Z,88.48
2022-11-01T14:59:27.650Z,88.53
2022-11-01T15:02:02.781Z,88.19
2022-11-01T15:04:39.229Z,87.78
2022-11-01T15:07:19.390Z,87.25
2022-11-01T15:10:07.158Z,87.36
2022-11-01T15:12:47.457Z,87.16
2022-11-01T15:15:24.066Z,87.11
2022-11-01T15:17:58.046Z,87.39
2022-11-01T15:20:36.089Z,86.96
2022-11-01T15:23:10.647Z,86.82
2022-11-01T15:25:40.819Z,86.68
2022-11-01T15:28:07.742Z,86.46
2022-11-01T15:30:34.979Z,86.83
2022-11-01T15:33:32.747Z,86.66
2022-11-01T15:36:23.391Z,87.14
2022-11-01T15:38:58.983Z,86.79
2022-11-01T15:41:30.226Z,86.87
2022-11-01T15:44:01.122Z,87.03
2022-11-01T15:46:33.623Z,87.15
2022-11-01T15:49:09.025Z,87.45
2022-11-01T15:51:42.190Z,87.24
2022-11-01T15:54:48.284Z,87.64
2022-11-01T15:57:26.432Z,87.62
2022-11-01T16:00:08.113Z,87.64
2022-11-01T16:02:58.594Z,87.81
2022-11-01T16:05:34.419Z,88.14
2022-11-01T16:08:01.473Z,88.20
2022-11-01T16:10:30.466Z,88.25
2022-11-01T16:12:59.852Z,87.95
2022-11-01T16:15:31.641Z,88.08
2022-11-01T16:18:00.302Z,87.59
2022-11-01T16:20:38.252Z,87.85
2022-11-01T16:23:07.762Z,88.11
2022-11-01T16:25:37.778Z,88.55
2022-11-01T16:28:10.512Z,88.63
2022-11-01T16:30:54.992Z,88.70
2022-11-01T16:33:35.829Z,89.05
2022-11-01T16:36:26.825Z,89.45
2022-11-01T16:38:54.664Z,89.74
2022-11-01T16:41:24.364Z,89.89
2022-11-01T16:43:58.198Z,89.74
2022-11-01T16:46:29.405Z,89.76
2022-11-01T16:48:58.616Z,90.33
2022-11-01T16:51:30.594Z,90.15
2022-11-01T16:54:03.190Z,90.07
2022-11-01T16:56:37.072Z,90.01
2022-11-01T16:59:35.801Z,89.92
2022-11-01T17:02:16.693Z,89.81
2022-11-01T17:04:46.416Z,90.08
2022-11-01T17:07:13.403Z,89.61
2022-11-01T17:09:40.198Z,89.61
2022-11-01T17:12:08.270Z,90.06
2022-11-01T17:14:37.657Z,90.27
2022-11-01T17:17:09.950Z,90.17
2022-11-01T17:19:41.481Z,90.93
2022-11-01T17:22:16.443Z,91.00
2022-11-01T17:24:43.168Z,91.06
2022-11-01T17:27:10.277Z,90.50
2022-11-01T17:29:37.239Z,91.13
2022-11-01T17:32:09.027Z,91.18
2022-11-01T17:34:37.180Z,91.56
2022-11-01T17:37:04.659Z,91.50
2022-11-01T17:39:32.205Z,92.22
2022-11-01T17:41:59.498Z,91.79
2022-11-01T17:44:26.329Z,92.00
2022-11-01T17:46:53.338Z,92.05
2022-11-01T17:49:23.732Z,92.16
2022-11-01T17:51:54.729Z,92.01
2022-11-01T17:54:23.223Z,92.06
2022-11-01T17:56:51.434Z,92.12
2022-11-01T17:59:18.782Z,91.86
2022-11-01T18:01:45.683Z,91.97
2022-11-01T18:04:12.538Z,92.16
2022-11-01T18:06:40.887Z,91.92
2022-11-01T18:09:25.593Z,92.20
2022-11-01T18:12:07.711Z,92.17
2022-11-01T18:14:57.218Z,92.23
2022-11-01T18:17:46.656Z,92.30
2022-11-01T18:20:46.304Z,92.16
2022-11-01T18:23:18.510Z,92.15
2022-11-01T18:25:50.556Z,91.65
2022-11-01T18:28:28.024Z,91.93
2022-11-01T18:31:41.449Z,92.10
2022-11-01T18:34:25.344Z,92.27
2022-11-01T18:37:09.989Z,92.46
2022-11-01T18:39:42.618Z,92.77
2022-11-01T18:42:10.742Z,93.01
2022-11-01T18:44:40.530Z,93.30
2022-11-01T18:47:16.819Z,93.25
2022-11-01T18:49:43.729Z,93.45
2022-11-01T18:52:15.344Z,94.17
2022-11-01T18:54:56.531Z,93.90
2022-11-01T18:57:24.905Z,94.05
2022-11-01T18:59:53.611Z,93.27
2022-11-01T19:02:28.217Z,93.45
2022-11-01T19:05:18.279Z,93.89
2022-11-01T19:08:10.068Z,94.40
2022-11-01T19:10:38.580Z,94.30
2022-11-01T19:13:13.075Z,93.86
2022-11-01T19:15:40.023Z,93.70
2022-11-01T19:18:20.530Z,92.68
2022-11-01T19:20:53.395Z,92.58
2022-11-01T19:23:41.080Z,92.13
2022-11-01T19:26:26.219Z,92.10
2022-11-01T19:28:53.388Z,91.75
2022-11-01T19:31:39.057Z,91.48
2022-11-01T19:34:16.547Z,91.04
2022-11-01T19:36:44.614Z,90.89
2022-11-01T19:39:23.697Z,90.45
2022-11-01T19:42:00.222Z,89.98
2022-11-01T19:44:28.996Z,89.98
2022-11-01T19:47:32.485Z,90.18
2022-11-01T19:49:59.363Z,90.30
2022-11-01T19:52:35.779Z,90.22
2022-11-01T19:55:21.389Z,90.39
2022-11-01T19:57:48.200Z,90.51
2022-11-01T20:00:19.282Z,90.42
2022-11-01T20:02:48.336Z,90.83
2022-11-01T20:05:33.195Z,91.04
2022-11-01T20:08:19.913Z,90.87
2022-11-01T20:10:46.904Z,90.78
2022-11-01T20:13:14.070Z,90.61
2022-11-01T20:15:40.847Z,90.50
2022-11-01T20:18:08.118Z,90.81
2022-11-01T20:20:35.433Z,90.92
2022-11-01T20:23:24.756Z,91.00
2022-11-01T20:25:48.920Z,91.40
2022-11-01T20:28:16.055Z,91.78
2022-11-01T20:30:42.786Z,91.97
2022-11-01T20:33:09.666Z,91.73
2022-11-01T20:35:36.729Z,91.83
2022-11-01T20:38:03.539Z,91.72
2022-11-01T20:40:30.303Z,91.72
2022-11-01T20:42:57.205Z,92.14
2022-11-01T20:45:23.984Z,92.13
2022-11-01T20:47:51.485Z,92.39
2022-11-01T20:50:19.204Z,92.51
2022-11-01T20:52:46.062Z,92.13
2022-11-01T20:55:13.483Z,92.13
2022-11-01T20:57:40.328Z,92.27
2022-11-01T21:00:18.949Z,92.44
2022-11-01T21:02:47.334Z,91.47
2022-11-01T21:05:25.318Z,91.80
2022-11-01T21:08:00.113Z,91.91
2022-11-01T21:10:36.833Z,91.74
2022-11-01T21:13:21.695Z,91.38
2022-11-01T21:15:49.338Z,91.18
2022-11-01T21:18:16.021Z,90.96
2022-11-01T21:20:46.970Z,91.24
2022-11-01T21:23:34.814Z,90.92
2022-11-01T21:26:17.718Z,90.82
2022-11-01T21:28:53.493Z,91.04
2022-11-01T21:31:34.143Z,91.14
2022-11-01T21:34:10.312Z,91.28
2022-11-01T21:36:53.605Z,91.58
2022-11-01T21:39:27.316Z,91.98
2022-11-01T21:42:01.760Z,91.29
2022-11-01T21:44:45.581Z,91.39
2022-11-01T21:47:43.175Z,91.54
2022-11-01T21:50:12.353Z,91.34
2022-11-01T21:52:39.101Z,91.56
2022-11-01T21:55:06.321Z,92.20
2022-11-01T21:57:33.058Z,91.76
2022-11-01T21:59:59.814Z,91.66
2022-11-01T22:02:26.682Z,91.63
2022-11-01T22:04:55.409Z,91.84
2022-11-01T22:07:22.423Z,92.22
2022-11-01T22:09:49.180Z,91.87
2022-11-01T22:12:15.955Z,92.55
2022-11-01T22:14:42.748Z,92.45
2022-11-01T22:17:09.563Z,92.28
2022-11-01T22:19:36.381Z,92.38
2022-11-01T22:22:03.145Z,92.81
2022-11-01T22:24:30.189Z,93.02
2022-11-01T22:26:57.144Z,92.91
2022-11-01T22:29:23.978Z,92.89
2022-11-01T22:31:50.808Z,92.31
2022-11-01T22:34:17.577Z,92.92
2022-11-01T22:36:44.301Z,92.91
2022-11-01T22:39:30.206Z,92.72
2022-11-01T22:41:57.015Z,92.97
2022-11-01T22:44:30.522Z,92.79
2022-11-01T22:47:00.546Z,92.70
2022-11-01T22:49:34.905Z,92.87
2022-11-01T22:52:17.215Z,92.86
2022-11-01T22:54:48.171Z,93.01
2022-11-01T22:57:24.471Z,93.90
2022-11-01T22:59:53.235Z,94.34
2022-11-01T23:02:39.250Z,93.96
2022-11-01T23:05:06.085Z,94.05
2022-11-01T23:07:57.798Z,94.52
2022-11-01T23:10:34.613Z,94.34
2022-11-01T23:13:21.780Z,94.63
2022-11-01T23:15:48.658Z,94.54
2022-11-01T23:18:27.847Z,94.51
2022-11-01T23:21:06.853Z,94.66
2022-11-01T23:23:41.031Z,94.80
2022-11-01T23:26:08.260Z,94.65
2022-11-01T23:28:37.317Z,94.80
2022-11-01T23:31:05.548Z,94.79
2022-11-01T23:33:40.758Z,94.57
2022-11-01T23:36:37.593Z,94.95
2022-11-01T23:39:13.823Z,94.66
2022-11-01T23:41:56.590Z,95.15
2022-11-01T23:44:37.732Z,94.72
2022-11-01T23:47:35.625Z,94.70
2022-11-01T23:50:21.267Z,94.48
2022-11-01T23:53:00.549Z,94.02
2022-11-01T23:55:32.582Z,94.29
2022-11-01T23:58:03.573Z,94.21
